createdAt,value
2023-01-02T00:01:41.192Z,88.11
2023-01-02T00:04:17.382Z,88.09
2023-01-02T00:06:50.875Z,88.10
2023-01-02T00:09:26.106Z,88.15
2023-01-02T00:11:59.783Z,88.15
2023-01-02T00:14:33.243Z,88.32
2023-01-02T00:17:09.316Z,88.13
2023-01-02T00:19:44.168Z,88.28
2023-01-02T00:22:18.565Z,88.39
2023-01-02T00:24:54.305Z,88.32
2023-01-02T00:27:27.720Z,88.34
2023-01-02T00:30:00.851Z,88.35
2023-01-02T00:32:35.254Z,88.43
2023-01-02T00:35:09.963Z,88.44
2023-01-02T00:37:45.449Z,88.51
2023-01-02T00:40:21.053Z,88.52
2023-01-02T00:42:54.601Z,88.51
2023-01-02T00:45:29.465Z,88.45
2023-01-02T00:48:04.160Z,88.52
2023-01-02T00:50:37.802Z,88.47
2023-01-02T00:53:09.809Z,88.51
2023-01-02T00:55:43.083Z,88.47
2023-01-02T00:58:16.481Z,88.47
2023-01-02T01:00:50.092Z,88.43
2023-01-02T01:03:23.452Z,88.45
2023-01-02T01:05:56.776Z,88.42
2023-01-02T01:08:30.203Z,88.39
2023-01-02T01:11:09.548Z,88.51
2023-01-02T01:13:43.248Z,88.37
2023-01-02T01:16:18.132Z,88.25
2023-01-02T01:18:51.425Z,88.24
2023-01-02T01:21:25.556Z,88.29
2023-01-02T01:23:59.539Z,88.11
2023-01-02T01:26:32.993Z,87.98
2023-01-02T01:29:06.110Z,87.85
2023-01-02T01:31:39.645Z,87.72
2023-01-02T01:34:13.723Z,87.53
2023-01-02T01:36:47.014Z,87.31
2023-01-02T01:39:21.063Z,87.06
2023-01-02T01:41:54.300Z,86.81
2023-01-02T01:44:51.681Z,86.56
2023-01-02T01:47:40.916Z,86.21
2023-01-02T01:50:20.463Z,85.89
2023-01-02T01:52:57.899Z,85.60
2023-01-02T01:55:35.561Z,85.32
2023-01-02T01:58:08.310Z,85.08
2023-01-02T02:00:44.213Z,84.82
2023-01-02T02:03:21.310Z,84.42
2023-01-02T02:05:54.713Z,84.01
2023-01-02T02:08:33.962Z,83.78
2023-01-02T02:11:08.152Z,83.60
2023-01-02T02:13:41.725Z,83.28
2023-01-02T02:16:28.587Z,82.99
2023-01-02T02:19:37.765Z,82.88
2023-01-02T02:22:33.362Z,82.66
2023-01-02T02:25:40.400Z,82.58
2023-01-02T02:28:30.880Z,82.46
2023-01-02T02:31:16.276Z,82.37
2023-01-02T02:33:58.549Z,82.06
2023-01-02T02:36:37.957Z,81.90
2023-01-02T02:39:21.895Z,81.76
2023-01-02T02:42:03.688Z,81.66
2023-01-02T02:44:49.461Z,81.53
2023-01-02T02:47:36.932Z,81.35
2023-01-02T02:50:19.147Z,81.28
2023-01-02T02:52:58.198Z,81.33
2023-01-02T02:55:37.300Z,81.19
2023-01-02T02:58:11.124Z,81.20
2023-01-02T03:00:44.150Z,81.02
2023-01-02T03:03:22.032Z,81.02
2023-01-02T03:06:10.542Z,80.93
2023-01-02T03:08:49.376Z,80.67
2023-01-02T03:11:24.970Z,80.45
2023-01-02T03:14:04.515Z,80.11
2023-01-02T03:16:44.552Z,79.87
2023-01-02T03:19:22.661Z,79.76
2023-01-02T03:22:04.330Z,79.59
2023-01-02T03:24:39.833Z,79.40
2023-01-02T03:27:17.331Z,79.30
2023-01-02T03:29:56.808Z,79.07
2023-01-02T03:32:34.169Z,79.05
2023-01-02T03:35:11.033Z,79.04
2023-01-02T03:37:48.892Z,78.98
2023-01-02T03:40:27.332Z,78.81
2023-01-02T03:43:06.600Z,78.79
2023-01-02T03:45:45.676Z,78.67
2023-01-02T03:48:29.329Z,78.58
2023-01-02T03:51:04.578Z,78.58
2023-01-02T03:53:40.072Z,78.56
2023-01-02T03:56:25.412Z,78.32
2023-01-02T03:59:08.384Z,78.11
2023-01-02T04:01:47.897Z,77.95
2023-01-02T04:04:27.217Z,77.95
2023-01-02T04:07:05.766Z,77.73
2023-01-02T04:09:40.391Z,77.57
2023-01-02T04:12:17.740Z,77.36
2023-01-02T04:14:56.484Z,77.21
2023-01-02T04:17:33.154Z,77.10
2023-01-02T04:20:09.326Z,77.14
2023-01-02T04:22:46.504Z,77.03
2023-01-02T04:25:21.414Z,77.02
2023-01-02T04:28:01.970Z,76.85
2023-01-02T04:30:40.669Z,76.77
2023-01-02T04:33:16.437Z,76.72
2023-01-02T04:35:49.532Z,76.64
2023-01-02T04:38:22.953Z,76.50
2023-01-02T04:40:56.349Z,76.37
2023-01-02T04:43:29.449Z,76.36
2023-01-02T04:46:03.267Z,76.28
2023-01-02T04:48:36.716Z,76.14
2023-01-02T04:51:09.879Z,75.93
2023-01-02T04:53:43.117Z,75.87
2023-01-02T04:56:16.582Z,75.78
2023-01-02T04:58:51.807Z,75.77
2023-01-02T05:01:25.983Z,75.69
2023-01-02T05:03:58.817Z,75.68
2023-01-02T05:06:31.666Z,75.63
2023-01-02T05:09:05.026Z,75.55
2023-01-02T05:11:37.885Z,75.47
2023-01-02T05:14:11.129Z,75.35
2023-01-02T05:16:44.880Z,75.40
2023-01-02T05:19:16.557Z,75.55
2023-01-02T05:22:05.714Z,75.37
2023-01-02T05:24:37.180Z,75.20
2023-01-02T05:27:08.381Z,75.15
2023-01-02T05:29:41.079Z,75.13
2023-01-02T05:32:13.189Z,74.93
2023-01-02T05:34:45.281Z,74.88
2023-01-02T05:37:16.509Z,74.81
2023-01-02T05:39:47.715Z,74.72
2023-01-02T05:42:19.846Z,74.57
2023-01-02T05:44:52.841Z,74.65
2023-01-02T05:47:25.829Z,74.49
2023-01-02T05:49:58.483Z,74.44
2023-01-02T05:52:31.557Z,74.36
2023-01-02T05:55:04.615Z,74.34
2023-01-02T05:57:37.226Z,74.21
2023-01-02T06:00:12.057Z,74.19
2023-01-02T06:02:48.356Z,74.26
2023-01-02T06:05:21.384Z,74.18
2023-01-02T06:07:55.212Z,74.20
2023-01-02T06:10:28.267Z,73.96
2023-01-02T06:13:01.876Z,73.99
2023-01-02T06:15:36.266Z,73.81
2023-01-02T06:18:10.062Z,73.88
2023-01-02T06:20:42.736Z,73.89
2023-01-02T06:23:16.025Z,73.89
2023-01-02T06:25:49.090Z,73.90
2023-01-02T06:28:22.381Z,73.84
2023-01-02T06:30:54.647Z,73.74
2023-01-02T06:33:27.272Z,73.98
2023-01-02T06:36:04.168Z,74.02
2023-01-02T06:38:36.939Z,74.40
2023-01-02T06:41:11.153Z,74.80
2023-01-02T06:43:48.664Z,74.83
2023-01-02T06:46:23.980Z,74.90
2023-01-02T06:48:56.801Z,75.03
2023-01-02T06:51:29.778Z,75.25
2023-01-02T06:54:03.657Z,75.45
2023-01-02T06:56:36.038Z,75.75
2023-01-02T06:59:08.799Z,75.84
2023-01-02T07:01:41.103Z,75.95
2023-01-02T07:04:18.925Z,75.94
2023-01-02T07:06:52.040Z,75.93
2023-01-02T07:09:24.929Z,75.95
2023-01-02T07:11:59.253Z,75.89
2023-01-02T07:14:31.621Z,75.83
2023-01-02T07:17:04.655Z,75.94
2023-01-02T07:19:35.102Z,75.88
2023-01-02T07:22:06.091Z,75.91
2023-01-02T07:24:36.779Z,75.86
2023-01-02T07:27:07.540Z,75.97
2023-01-02T07:29:37.866Z,75.96
2023-01-02T07:32:08.905Z,76.07
2023-01-02T07:34:39.521Z,76.11
2023-01-02T07:37:10.269Z,76.05
2023-01-02T07:39:40.803Z,76.13
2023-01-02T07:42:11.637Z,76.07
2023-01-02T07:44:42.135Z,76.09
2023-01-02T07:47:12.680Z,76.09
2023-01-02T07:49:43.224Z,76.18
2023-01-02T07:52:13.738Z,76.25
2023-01-02T07:54:44.634Z,76.34
2023-01-02T07:57:15.327Z,76.33
2023-01-02T07:59:47.240Z,76.40
2023-01-02T08:02:18.660Z,76.50
2023-01-02T08:04:49.716Z,76.83
2023-01-02T08:07:22.138Z,77.04
2023-01-02T08:09:53.131Z,77.26
2023-01-02T08:12:23.464Z,77.51
2023-01-02T08:14:54.066Z,77.32
2023-01-02T08:17:24.645Z,77.43
2023-01-02T08:19:55.364Z,77.36
2023-01-02T08:22:26.134Z,77.59
2023-01-02T08:24:57.308Z,77.86
2023-01-02T08:27:27.699Z,77.96
2023-01-02T08:29:57.988Z,77.95
2023-01-02T08:32:28.695Z,77.85
2023-01-02T08:34:58.972Z,77.95
2023-01-02T08:37:29.287Z,77.83
2023-01-02T08:39:59.571Z,77.87
2023-01-02T08:42:30.505Z,77.84
2023-01-02T08:45:01.084Z,77.85
2023-01-02T08:47:31.760Z,77.90
2023-01-02T08:50:02.116Z,77.78
2023-01-02T08:52:32.695Z,77.57
2023-01-02T08:55:05.516Z,77.54
2023-01-02T08:57:35.924Z,77.49
2023-01-02T09:00:07.699Z,77.39
2023-01-02T09:02:38.517Z,77.27
2023-01-02T09:05:10.594Z,77.22
2023-01-02T09:07:40.865Z,77.16
2023-01-02T09:10:12.589Z,77.01
2023-01-02T09:12:43.288Z,76.94
2023-01-02T09:15:14.151Z,76.82
2023-01-02T09:17:44.448Z,76.79
2023-01-02T09:20:14.830Z,76.72
2023-01-02T09:22:45.631Z,76.68
2023-01-02T09:25:20.465Z,76.63
2023-01-02T09:27:55.065Z,76.34
2023-01-02T09:30:25.516Z,76.39
2023-01-02T09:32:56.533Z,76.28
2023-01-02T09:35:26.826Z,76.26
2023-01-02T09:37:57.498Z,76.17
2023-01-02T09:40:29.699Z,76.07
2023-01-02T09:43:01.126Z,75.85
2023-01-02T09:45:32.093Z,75.95
2023-01-02T09:48:02.885Z,75.94
2023-01-02T09:50:33.503Z,76.04
2023-01-02T09:53:05.006Z,76.07
2023-01-02T09:55:45.086Z,75.94
2023-01-02T09:58:28.110Z,75.58
2023-01-02T10:01:00.311Z,75.66
2023-01-02T10:03:37.880Z,75.43
2023-01-02T10:06:16.277Z,75.22
2023-01-02T10:09:01.128Z,75.12
2023-01-02T10:11:54.477Z,75.20
2023-01-02T10:14:38.821Z,75.16
2023-01-02T10:17:17.345Z,74.81
2023-01-02T10:19:54.234Z,74.59
2023-01-02T10:22:32.117Z,74.39
2023-01-02T10:25:07.975Z,74.15
2023-01-02T10:27:42.741Z,73.84
2023-01-02T10:30:21.127Z,73.79
2023-01-02T10:32:57.063Z,73.67
2023-01-02T10:35:36.621Z,73.64
2023-01-02T10:38:07.826Z,73.31
2023-01-02T10:40:41.763Z,73.33
2023-01-02T10:43:13.930Z,73.40
2023-01-02T10:45:45.203Z,72.87
2023-01-02T10:48:16.090Z,72.86
2023-01-02T10:50:51.164Z,72.58
2023-01-02T10:53:32.465Z,72.34
2023-01-02T10:56:06.043Z,71.78
2023-01-02T10:58:45.483Z,72.10
2023-01-02T11:01:18.876Z,71.95
2023-01-02T11:04:09.702Z,71.78
2023-01-02T11:06:52.387Z,72.36
2023-01-02T11:09:26.111Z,72.39
2023-01-02T11:11:58.590Z,72.69
2023-01-02T11:14:34.510Z,73.24
2023-01-02T11:17:13.742Z,75.40
2023-01-02T11:19:46.371Z,77.32
2023-01-02T11:22:19.667Z,78.40
2023-01-02T11:25:00.898Z,79.28
2023-01-02T11:27:36.649Z,80.22
2023-01-02T11:30:10.276Z,80.82
2023-01-02T11:32:42.222Z,81.32
2023-01-02T11:35:38.789Z,81.62
2023-01-02T11:38:24.831Z,82.04
2023-01-02T11:41:03.121Z,82.42
2023-01-02T11:43:49.824Z,82.65
2023-01-02T11:46:35.319Z,82.62
2023-01-02T11:49:12.537Z,82.69
2023-01-02T11:51:43.515Z,82.40
2023-01-02T11:54:20.774Z,82.16
2023-01-02T11:56:53.047Z,82.02
2023-01-02T11:59:29.729Z,81.94
2023-01-02T12:02:10.968Z,81.68
2023-01-02T12:04:41.624Z,81.32
2023-01-02T12:07:26.708Z,81.06
2023-01-02T12:10:06.392Z,80.82
2023-01-02T12:12:49.633Z,80.56
2023-01-02T12:15:50.357Z,80.30
2023-01-02T12:18:33.748Z,80.20
2023-01-02T12:21:13.791Z,80.22
2023-01-02T12:24:05.523Z,80.32
2023-01-02T12:26:45.730Z,80.42
2023-01-02T12:29:48.263Z,80.42
2023-01-02T12:32:58.843Z,80.43
2023-01-02T12:35:46.500Z,80.46
2023-01-02T12:38:22.988Z,80.54
2023-01-02T12:41:01.836Z,81.41
2023-01-02T12:44:05.686Z,82.35
2023-01-02T12:46:51.427Z,83.30
2023-01-02T12:49:46.256Z,84.11
2023-01-02T12:52:28.646Z,84.90
2023-01-02T12:55:18.426Z,85.38
2023-01-02T12:57:59.421Z,85.25
2023-01-02T13:00:55.206Z,84.98
2023-01-02T13:03:46.380Z,84.65
2023-01-02T13:06:43.889Z,83.95
2023-01-02T13:09:22.359Z,84.15
2023-01-02T13:12:00.766Z,84.52
2023-01-02T13:14:36.460Z,84.60
2023-01-02T13:17:25.638Z,84.54
2023-01-02T13:20:01.293Z,84.37
2023-01-02T13:22:53.357Z,84.26
2023-01-02T13:25:27.103Z,83.92
2023-01-02T13:28:00.091Z,83.74
2023-01-02T13:31:05.432Z,83.15
2023-01-02T13:33:49.328Z,82.50
2023-01-02T13:36:23.427Z,82.57
2023-01-02T13:38:56.120Z,82.72
2023-01-02T13:41:28.161Z,82.84
2023-01-02T13:44:01.114Z,83.00
2023-01-02T13:47:02.684Z,82.89
2023-01-02T13:49:28.427Z,82.92
2023-01-02T13:52:01.590Z,82.81
2023-01-02T13:54:38.589Z,82.90
2023-01-02T13:57:32.779Z,82.72
2023-01-02T14:00:05.805Z,82.07
2023-01-02T14:02:36.559Z,81.71
2023-01-02T14:05:52.467Z,81.66
2023-01-02T14:08:28.340Z,81.78
2023-01-02T14:11:01.665Z,81.66
2023-01-02T14:13:38.516Z,81.86
2023-01-02T14:16:21.600Z,81.79
2023-01-02T14:19:18.806Z,81.45
2023-01-02T14:21:52.350Z,81.51
2023-01-02T14:24:33.486Z,81.40
2023-01-02T14:27:06.346Z,81.15
2023-01-02T14:29:49.030Z,80.85
2023-01-02T14:32:32.115Z,81.13
2023-01-02T14:35:05.818Z,81.14
2023-01-02T14:37:41.675Z,81.23
2023-01-02T14:40:34.629Z,81.06
2023-01-02T14:43:27.392Z,80.97
2023-01-02T14:46:01.500Z,80.81
2023-01-02T14:48:38.668Z,80.87
2023-01-02T14:51:14.613Z,81.05
2023-01-02T14:53:51.411Z,81.04
2023-01-02T14:56:26.225Z,81.10
2023-01-02T14:58:57.735Z,81.12
2023-01-02T15:01:43.119Z,81.24
2023-01-02T15:04:23.198Z,81.46
2023-01-02T15:07:09.890Z,81.80
2023-01-02T15:09:45.037Z,82.36
2023-01-02T15:12:42.532Z,82.95
2023-01-02T15:15:13.208Z,83.44
2023-01-02T15:17:45.021Z,84.02
2023-01-02T15:20:21.190Z,85.05
2023-01-02T15:22:52.812Z,85.71
2023-01-02T15:25:35.119Z,86.06
2023-01-02T15:28:06.293Z,86.47
2023-01-02T15:30:39.951Z,86.57
2023-01-02T15:33:30.478Z,86.56
2023-01-02T15:36:05.095Z,86.43
2023-01-02T15:38:36.053Z,86.44
2023-01-02T15:41:07.226Z,86.65
2023-01-02T15:43:58.140Z,86.98
2023-01-02T15:46:29.344Z,87.06
2023-01-02T15:49:02.832Z,87.17
2023-01-02T15:51:39.690Z,87.28
2023-01-02T15:54:15.108Z,87.29
2023-01-02T15:56:46.319Z,87.42
2023-01-02T15:59:30.166Z,87.37
2023-01-02T16:02:02.847Z,87.49
2023-01-02T16:04:35.183Z,87.62
2023-01-02T16:07:19.415Z,87.63
2023-01-02T16:09:55.948Z,87.72
2023-01-02T16:12:26.852Z,87.73
2023-01-02T16:15:01.342Z,87.70
2023-01-02T16:17:34.775Z,87.72
2023-01-02T16:20:11.575Z,87.75
2023-01-02T16:22:47.784Z,87.67
2023-01-02T16:25:22.337Z,87.68
2023-01-02T16:27:56.120Z,87.68
2023-01-02T16:30:40.884Z,87.64
2023-01-02T16:33:26.751Z,87.58
2023-01-02T16:36:01.189Z,87.44
2023-01-02T16:38:33.000Z,87.58
2023-01-02T16:41:05.549Z,87.52
2023-01-02T16:43:43.151Z,87.59
2023-01-02T16:46:17.157Z,87.52
2023-01-02T16:48:47.688Z,87.56
2023-01-02T16:51:18.163Z,87.49
2023-01-02T16:53:48.884Z,87.45
2023-01-02T16:56:19.181Z,87.39
2023-01-02T16:58:49.635Z,87.39
2023-01-02T17:01:27.482Z,87.22
2023-01-02T17:03:58.047Z,87.10
2023-01-02T17:06:28.943Z,87.10
2023-01-02T17:08:59.824Z,86.98
2023-01-02T17:11:30.681Z,87.03
2023-01-02T17:14:02.034Z,86.95
2023-01-02T17:16:34.166Z,86.95
2023-01-02T17:19:04.530Z,86.95
2023-01-02T17:21:34.890Z,86.79
2023-01-02T17:24:08.681Z,86.80
2023-01-02T17:26:39.223Z,86.80
2023-01-02T17:29:09.781Z,86.82
2023-01-02T17:31:40.580Z,86.71
2023-01-02T17:34:11.390Z,86.78
2023-01-02T17:36:42.386Z,86.70
2023-01-02T17:39:13.247Z,86.65
2023-01-02T17:41:43.661Z,86.55
2023-01-02T17:44:13.992Z,86.45
2023-01-02T17:49:35.798Z,86.29
2023-01-02T17:52:07.586Z,86.17
2023-01-02T17:54:38.023Z,86.12
2023-01-02T17:57:10.820Z,86.24
2023-01-02T17:59:45.284Z,86.00
2023-01-02T18:02:19.480Z,85.70
2023-01-02T18:04:55.197Z,85.70
2023-01-02T18:07:26.410Z,85.58
2023-01-02T18:10:07.495Z,85.41
2023-01-02T18:12:43.115Z,85.24
2023-01-02T18:15:16.444Z,84.98
2023-01-02T18:17:46.807Z,84.70
2023-01-02T18:20:19.875Z,84.59
2023-01-02T18:22:51.243Z,84.38
2023-01-02T18:25:24.300Z,84.24
2023-01-02T18:27:57.230Z,84.03
2023-01-02T18:30:28.397Z,83.40
2023-01-02T18:33:07.582Z,83.23
2023-01-02T18:35:56.860Z,82.98
2023-01-02T18:38:32.384Z,82.89
2023-01-02T18:41:04.152Z,82.83
2023-01-02T18:43:36.533Z,82.42
2023-01-02T18:46:16.416Z,82.46
2023-01-02T18:48:47.427Z,82.37
2023-01-02T18:51:20.169Z,82.31
2023-01-02T18:53:52.707Z,82.21
2023-01-02T18:56:31.120Z,82.19
2023-01-02T18:59:04.543Z,81.92
2023-01-02T19:01:40.357Z,81.78
2023-01-02T19:04:31.869Z,81.82
2023-01-02T19:07:22.291Z,81.73
2023-01-02T19:09:54.078Z,81.88
2023-01-02T19:12:46.895Z,81.63
2023-01-02T19:15:42.768Z,81.45
2023-01-02T19:18:33.673Z,81.35
2023-01-02T19:21:17.913Z,81.27
2023-01-02T19:23:53.892Z,81.31
2023-01-02T19:26:30.509Z,81.18
2023-01-02T19:29:12.770Z,81.24
2023-01-02T19:31:48.634Z,81.37
2023-01-02T19:34:36.797Z,81.47
2023-01-02T19:37:24.016Z,81.57
2023-01-02T19:39:56.462Z,81.71
2023-01-02T19:42:29.373Z,81.92
2023-01-02T19:45:01.480Z,81.79
2023-01-02T19:47:35.038Z,81.88
2023-01-02T19:50:07.625Z,82.21
2023-01-02T19:52:38.307Z,82.18
2023-01-02T19:55:11.005Z,82.22
2023-01-02T19:57:41.564Z,82.39
2023-01-02T20:00:16.920Z,82.48
2023-01-02T20:02:49.522Z,82.18
2023-01-02T20:05:22.331Z,82.22
2023-01-02T20:07:55.146Z,82.04
2023-01-02T20:10:25.898Z,81.87
2023-01-02T20:12:56.583Z,81.87
2023-01-02T20:15:28.470Z,81.74
2023-01-02T20:18:08.229Z,81.56
2023-01-02T20:20:39.131Z,81.56
2023-01-02T20:23:09.905Z,81.77
2023-01-02T20:25:40.574Z,81.58
2023-01-02T20:28:13.822Z,81.65
2023-01-02T20:30:44.615Z,81.88
2023-01-02T20:33:15.102Z,81.73
2023-01-02T20:35:45.406Z,81.78
2023-01-02T20:38:15.808Z,81.61
2023-01-02T20:40:47.129Z,81.79
2023-01-02T20:43:18.237Z,81.82
2023-01-02T20:45:48.606Z,81.93
2023-01-02T20:48:19.055Z,81.92
2023-01-02T20:50:49.445Z,82.04
2023-01-02T20:53:19.874Z,82.05
2023-01-02T20:55:50.440Z,82.17
2023-01-02T20:58:22.105Z,82.06
2023-01-02T21:00:52.561Z,81.99
2023-01-02T21:03:23.311Z,82.14
2023-01-02T21:05:54.395Z,82.19
2023-01-02T21:08:24.822Z,82.45
2023-01-02T21:10:55.225Z,82.83
2023-01-02T21:13:25.584Z,83.07
2023-01-02T21:15:57.925Z,83.04
2023-01-02T21:18:30.037Z,82.83
2023-01-02T21:21:02.871Z,82.99
2023-01-02T21:23:35.290Z,82.95
2023-01-02T21:26:07.256Z,83.05
2023-01-02T21:28:38.797Z,82.99
2023-01-02T21:31:09.830Z,82.93
2023-01-02T21:33:40.505Z,82.74
2023-01-02T21:36:12.009Z,82.69
2023-01-02T21:38:43.189Z,82.81
2023-01-02T21:41:31.134Z,82.66
2023-01-02T21:44:01.838Z,82.52
2023-01-02T21:46:32.531Z,82.46
2023-01-02T21:49:02.929Z,82.35
2023-01-02T21:51:33.317Z,82.21
2023-01-02T21:54:04.077Z,81.95
2023-01-02T21:56:34.883Z,81.80
2023-01-02T21:59:05.239Z,81.62
2023-01-02T22:01:36.071Z,81.56
2023-01-02T22:04:07.015Z,81.45
2023-01-02T22:06:50.364Z,81.40
2023-01-02T22:09:29.575Z,81.27
2023-01-02T22:12:00.277Z,81.03
2023-01-02T22:14:33.274Z,80.85
2023-01-02T22:17:06.441Z,80.84
2023-01-02T22:19:37.754Z,80.55
2023-01-02T22:22:08.086Z,80.32
2023-01-02T22:24:44.240Z,80.38
2023-01-02T22:27:17.256Z,80.44
2023-01-02T22:30:20.013Z,80.20
2023-01-02T22:32:40.712Z,79.99
2023-01-02T22:35:12.377Z,79.95
2023-01-02T22:37:42.867Z,80.08
2023-01-02T22:40:14.733Z,79.78
2023-01-02T22:43:10.145Z,80.03
2023-01-02T22:45:44.518Z,80.05
2023-01-02T22:48:22.753Z,80.11
2023-01-02T22:50:55.937Z,80.35
2023-01-02T22:53:29.235Z,80.53
2023-01-02T22:56:00.931Z,80.88
2023-01-02T22:58:31.289Z,80.72
2023-01-02T23:01:03.072Z,80.77
2023-01-02T23:03:38.838Z,81.14
2023-01-02T23:06:09.866Z,81.31
2023-01-02T23:08:40.572Z,81.25
2023-01-02T23:11:11.800Z,81.43
2023-01-02T23:13:43.344Z,81.30
2023-01-02T23:16:32.052Z,81.18
2023-01-02T23:19:18.915Z,81.31
2023-01-02T23:21:53.189Z,81.23
2023-01-02T23:24:26.490Z,81.26
2023-01-02T23:27:00.129Z,81.29
2023-01-02T23:29:31.471Z,81.55
2023-01-02T23:32:02.858Z,81.36
2023-01-02T23:34:33.763Z,81.46
2023-01-02T23:37:04.478Z,81.58
2023-01-02T23:39:35.391Z,81.66
2023-01-02T23:42:06.305Z,81.79
2023-01-02T23:44:38.417Z,81.83
2023-01-02T23:47:12.481Z,81.87
2023-01-02T23:49:46.295Z,81.96
2023-01-02T23:52:17.126Z,82.14
2023-01-02T23:54:47.609Z,82.09
2023-01-02T23:57:18.156Z,82.12
2023-01-02T23:59:49.052Z,82.21
